RJTU(METAR)
04/26 16:00
METAR RJTU 260700Z 03010KT 9999 FEW010 BKN020 BKN030 11/06 Q1005 RMK
1SC010 5SC020 6SC030 A2968=
戻る
トップページへ戻る
IMOC Co,.Ltd.